Time;durP1;ratioP1;P1;durP2;ratioP2;P2;SDS_P1;SDS_P2;PMS_P1;PMS_P2;Temp;Humidity;BMP_temperature;BMP_pressure;BME280_temperature;BME280_humidity;BME280_pressure;Samples;Min_cycle;Max_cycle;Signal;HPM_P1;HPM_P2
2024/01/28 00:01:41;;;;;;;4.57;2.38;;;1.80;99.90;;;;;;5134799;27;20047;-65
2024/01/28 00:04:08;;;;;;;2.92;2.40;;;1.80;99.90;;;;;;5134817;27;20355;-65
2024/01/28 00:06:34;;;;;;;3.35;2.15;;;1.70;99.90;;;;;;5134714;27;20042;-65
2024/01/28 00:09:06;;;;;;;4.75;2.35;;;1.70;99.90;;;;;;5132984;27;20486;-67
2024/01/28 00:11:46;;;;;;;3.63;2.00;;;1.70;99.90;;;;;;5134735;27;20047;-67
2024/01/28 00:14:11;;;;;;;3.88;2.78;;;1.70;99.90;;;;;;5134332;27;20034;-65
2024/01/28 00:16:37;;;;;;;3.67;2.38;;;1.60;99.90;;;;;;5134600;27;20034;-65
2024/01/28 00:19:03;;;;;;;3.05;2.08;;;1.60;99.90;;;;;;5133928;27;20039;-65
2024/01/28 00:21:28;;;;;;;2.92;2.10;;;1.60;99.90;;;;;;5134471;27;20031;-65
2024/01/28 00:23:55;;;;;;;1.98;1.67;;;1.50;99.90;;;;;;5134210;27;20417;-65
2024/01/28 00:26:20;;;;;;;2.70;2.28;;;1.50;99.90;;;;;;5134372;27;20114;-65
2024/01/28 00:28:46;;;;;;;2.83;1.92;;;2.10;99.90;;;;;;5134173;27;20535;-65
2024/01/28 00:31:12;;;;;;;2.78;2.33;;;2.20;99.90;;;;;;5115698;27;20043;-65
2024/01/28 00:33:38;;;;;;;4.65;2.47;;;1.40;99.90;;;;;;5134412;27;20118;-65
2024/01/28 00:36:04;;;;;;;2.95;2.17;;;1.40;99.90;;;;;;5134280;27;20084;-65
2024/01/28 00:38:31;;;;;;;2.08;1.77;;;1.40;99.90;;;;;;5133901;27;20035;-65
2024/01/28 00:41:01;;;;;;;3.03;2.40;;;1.50;99.90;;;;;;5134201;27;20519;-66
2024/01/28 00:43:27;;;;;;;3.22;2.30;;;1.50;99.90;;;;;;5133901;27;20123;-65
2024/01/28 00:45:53;;;;;;;2.78;2.40;;;1.50;99.90;;;;;;5134183;27;20093;-66
2024/01/28 00:48:19;;;;;;;2.85;2.42;;;1.60;99.90;;;;;;5134178;27;20054;-65
2024/01/28 00:50:45;;;;;;;3.22;2.08;;;1.50;99.90;;;;;;5133842;27;20039;-65
2024/01/28 00:53:10;;;;;;;3.17;2.08;;;1.50;99.90;;;;;;5134114;28;20160;-65
2024/01/28 00:55:36;;;;;;;2.55;2.33;;;1.50;99.90;;;;;;5134122;28;20039;-65
2024/01/28 00:58:02;;;;;;;3.00;2.20;;;1.40;99.90;;;;;;5133990;28;20382;-65
2024/01/28 01:00:28;;;;;;;3.03;2.33;;;1.50;99.90;;;;;;5133840;28;20042;-64
2024/01/28 01:02:54;;;;;;;2.42;1.90;;;1.40;99.90;;;;;;5134025;28;20038;-63
2024/01/28 01:05:19;;;;;;;3.42;1.65;;;1.40;99.90;;;;;;5115535;28;20039;-63
2024/01/28 01:07:45;;;;;;;3.13;2.25;;;1.40;99.90;;;;;;5134089;28;20147;-63
2024/01/28 01:10:20;;;;;;;3.70;2.35;;;1.80;99.90;;;;;;5132250;28;20059;-63
2024/01/28 01:12:45;;;;;;;2.35;1.95;;;1.40;99.90;;;;;;5133693;28;20490;-63
2024/01/28 01:15:11;;;;;;;3.40;2.30;;;1.40;99.90;;;;;;5133968;28;20043;-64
2024/01/28 01:17:36;;;;;;;4.32;2.22;;;1.40;99.90;;;;;;5133572;28;20252;-63
2024/01/28 01:20:02;;;;;;;2.22;2.03;;;1.40;99.90;;;;;;5134007;28;20031;-63
2024/01/28 01:22:28;;;;;;;3.63;2.28;;;1.40;99.90;;;;;;5115316;28;20035;-67
2024/01/28 01:24:54;;;;;;;2.42;2.17;;;1.30;99.90;;;;;;5133528;28;20032;-65
2024/01/28 01:27:19;;;;;;;2.65;2.13;;;1.30;99.90;;;;;;5133708;28;20069;-63
2024/01/28 01:29:45;;;;;;;2.50;1.88;;;1.30;99.90;;;;;;5133795;27;20046;-64
2024/01/28 01:32:11;;;;;;;3.55;2.35;;;1.30;99.90;;;;;;5118490;27;20035;-64
2024/01/28 01:34:37;;;;;;;3.03;2.17;;;1.30;99.90;;;;;;5137799;27;20590;-64
2024/01/28 01:37:03;;;;;;;3.95;2.00;;;1.30;99.90;;;;;;5137657;27;20047;-64
2024/01/28 01:39:29;;;;;;;2.70;2.05;;;1.30;99.90;;;;;;5137530;27;20445;-64
2024/01/28 01:41:55;;;;;;;2.85;1.85;;;1.30;99.90;;;;;;5137249;27;20031;-64
2024/01/28 01:44:20;;;;;;;3.03;2.20;;;1.30;99.90;;;;;;5137557;27;20043;-64
2024/01/28 01:46:47;;;;;;;4.45;2.60;;;1.30;99.90;;;;;;5137506;27;20035;-63
2024/01/28 01:49:13;;;;;;;4.45;2.17;;;1.30;99.90;;;;;;5137409;27;20398;-63
2024/01/28 01:51:39;;;;;;;2.28;1.88;;;1.30;99.90;;;;;;5137385;27;20035;-64
2024/01/28 01:54:06;;;;;;;4.05;2.30;;;1.20;99.90;;;;;;5137370;27;20054;-64
2024/01/28 01:56:33;;;;;;;2.78;2.30;;;1.50;99.90;;;;;;5137406;27;20063;-64
2024/01/28 01:58:58;;;;;;;4.63;2.38;;;1.20;99.90;;;;;;5137195;27;20505;-63
2024/01/28 02:01:26;;;;;;;2.63;1.80;;;1.20;99.90;;;;;;5136783;27;20040;-64
2024/01/28 02:03:54;;;;;;;2.22;1.95;;;1.20;99.90;;;;;;5136874;27;20035;-63
2024/01/28 02:06:20;;;;;;;1.95;1.75;;;1.20;99.90;;;;;;5136789;27;20035;-63
2024/01/28 02:08:46;;;;;;;3.30;1.73;;;1.20;99.90;;;;;;5137105;27;20172;-63
2024/01/28 02:11:12;;;;;;;3.45;2.25;;;1.20;99.90;;;;;;5135458;27;20063;-61
2024/01/28 02:13:44;;;;;;;4.00;2.65;;;1.20;99.90;;;;;;5136947;27;20122;-61
2024/01/28 02:16:09;;;;;;;3.70;2.22;;;1.20;99.90;;;;;;5136592;27;20562;-62
2024/01/28 02:18:35;;;;;;;2.85;2.20;;;1.20;99.90;;;;;;5118326;27;20043;-61
2024/01/28 02:21:01;;;;;;;2.60;1.95;;;1.20;99.90;;;;;;5118173;27;20039;-61
2024/01/28 02:23:26;;;;;;;3.67;2.15;;;1.20;99.90;;;;;;5136784;27;20555;-61
2024/01/28 02:25:52;;;;;;;2.45;2.00;;;1.30;99.90;;;;;;5118345;27;20478;-62
2024/01/28 02:28:17;;;;;;;1.95;1.85;;;1.20;99.90;;;;;;5136624;27;20046;-61
2024/01/28 02:30:43;;;;;;;2.75;1.95;;;1.30;99.90;;;;;;5118066;27;20486;-64
2024/01/28 02:33:09;;;;;;;2.63;2.22;;;1.30;99.90;;;;;;5136621;27;20039;-63
2024/01/28 02:35:35;;;;;;;2.97;2.00;;;1.30;99.90;;;;;;5136516;27;20039;-64
2024/01/28 02:38:00;;;;;;;4.25;2.67;;;1.30;99.90;;;;;;5136425;27;20500;-67
2024/01/28 02:40:26;;;;;;;5.22;2.47;;;1.40;99.90;;;;;;5136469;27;20027;-64
2024/01/28 02:42:52;;;;;;;3.00;2.30;;;1.30;99.90;;;;;;5136174;27;20031;-63
2024/01/28 02:45:21;;;;;;;3.85;2.67;;;1.30;99.90;;;;;;5136024;27;20042;-63
2024/01/28 02:47:47;;;;;;;3.40;2.08;;;1.30;99.90;;;;;;5136277;27;20035;-63
2024/01/28 02:50:13;;;;;;;2.53;2.20;;;1.30;99.90;;;;;;5117864;27;20414;-63
2024/01/28 02:52:38;;;;;;;3.22;2.20;;;1.20;99.90;;;;;;5136178;27;20403;-63
2024/01/28 02:55:04;;;;;;;2.90;2.03;;;1.20;99.90;;;;;;5136192;27;20046;-64
2024/01/28 02:57:30;;;;;;;3.58;2.45;;;1.20;99.90;;;;;;5135727;27;20043;-64
2024/01/28 02:59:57;;;;;;;3.40;2.22;;;1.20;99.90;;;;;;5136154;27;20114;-64
2024/01/28 03:02:23;;;;;;;3.45;2.50;;;1.20;99.90;;;;;;5135854;27;20546;-64
2024/01/28 03:04:49;;;;;;;3.88;2.30;;;1.20;99.90;;;;;;5135974;27;20039;-63
2024/01/28 03:07:14;;;;;;;4.03;2.53;;;1.20;99.90;;;;;;5135987;27;20475;-63
2024/01/28 03:09:46;;;;;;;3.25;2.33;;;1.30;99.90;;;;;;5134469;27;20061;-63
2024/01/28 03:12:12;;;;;;;2.45;2.00;;;1.30;99.90;;;;;;5135589;27;20039;-63
2024/01/28 03:14:38;;;;;;;3.45;2.22;;;1.30;99.90;;;;;;5135831;27;20023;-64
2024/01/28 03:17:03;;;;;;;5.50;2.05;;;1.30;99.90;;;;;;5135803;27;20062;-64
2024/01/28 03:19:29;;;;;;;3.70;3.05;;;1.20;99.90;;;;;;5116981;27;20063;-64
2024/01/28 03:21:55;;;;;;;4.22;2.13;;;1.20;99.90;;;;;;5135697;27;20028;-64
2024/01/28 03:24:20;;;;;;;2.08;1.85;;;1.40;99.90;;;;;;5135547;27;20114;-64
2024/01/28 03:26:46;;;;;;;3.30;2.35;;;1.30;99.90;;;;;;5135580;27;20042;-65
2024/01/28 03:29:13;;;;;;;2.55;2.33;;;1.30;99.90;;;;;;5135489;27;20470;-65
2024/01/28 03:31:40;;;;;;;3.53;2.50;;;1.30;99.90;;;;;;5135375;27;20390;-65
2024/01/28 03:34:06;;;;;;;3.35;2.60;;;1.60;99.90;;;;;;5135073;27;20043;-65
2024/01/28 03:36:32;;;;;;;7.22;3.13;;;1.30;99.90;;;;;;5135312;27;20070;-65
2024/01/28 03:38:58;;;;;;;4.32;2.50;;;1.40;99.90;;;;;;5135171;27;20131;-66
2024/01/28 03:41:23;;;;;;;2.92;2.17;;;1.40;99.90;;;;;;5135298;27;20039;-62
2024/01/28 03:43:49;;;;;;;2.83;2.47;;;1.40;99.90;;;;;;5116615;27;20035;-73
2024/01/28 03:46:14;;;;;;;3.25;2.50;;;1.50;99.90;;;;;;5135250;27;20080;-73
2024/01/28 03:48:40;;;;;;;2.67;2.33;;;1.50;99.90;;;;;;5135115;27;20519;-73
2024/01/28 03:51:06;;;;;;;3.30;2.13;;;1.50;99.90;;;;;;5135177;27;20035;-73
2024/01/28 03:53:33;;;;;;;2.28;1.98;;;1.50;99.90;;;;;;5134381;27;20066;-73
2024/01/28 03:55:59;;;;;;;5.10;2.58;;;1.50;99.90;;;;;;5116354;27;20046;-71
2024/01/28 03:58:24;;;;;;;3.53;2.38;;;1.50;99.90;;;;;;5134926;27;20035;-73
2024/01/28 04:00:50;;;;;;;3.28;2.40;;;1.50;99.90;;;;;;5134632;27;20034;-73
2024/01/28 04:03:16;;;;;;;3.75;2.25;;;1.50;99.90;;;;;;5134838;27;20034;-72
2024/01/28 04:05:43;;;;;;;4.68;2.80;;;1.50;99.90;;;;;;5116273;27;20372;-73
2024/01/28 04:08:09;;;;;;;4.05;2.22;;;1.50;99.90;;;;;;5116190;27;20051;-73
2024/01/28 04:10:42;;;;;;;3.97;3.08;;;1.50;99.90;;;;;;5133240;27;20055;-73
2024/01/28 04:13:21;;;;;;;2.42;2.15;;;1.50;99.90;;;;;;5134382;27;20101;-73
2024/01/28 04:15:47;;;;;;;3.53;2.40;;;1.40;99.90;;;;;;5115961;27;20047;-72
2024/01/28 04:18:13;;;;;;;3.47;2.30;;;1.40;99.90;;;;;;5134498;27;20062;-73
2024/01/28 04:20:38;;;;;;;4.32;2.60;;;1.40;99.90;;;;;;5134399;27;20398;-73
2024/01/28 04:23:04;;;;;;;2.45;1.92;;;1.40;99.90;;;;;;5115918;27;20046;-72
2024/01/28 04:25:30;;;;;;;6.30;2.67;;;1.40;99.90;;;;;;5134162;27;20440;-72
2024/01/28 04:27:55;;;;;;;2.72;2.17;;;1.40;99.90;;;;;;5134523;27;20403;-73
2024/01/28 04:30:21;;;;;;;3.80;2.15;;;1.40;99.90;;;;;;5115729;28;20043;-73
2024/01/28 04:32:47;;;;;;;2.78;2.53;;;1.30;99.90;;;;;;5134608;27;20108;-70
2024/01/28 04:35:13;;;;;;;2.83;2.40;;;1.40;99.90;;;;;;5134373;27;20043;-64
2024/01/28 04:37:39;;;;;;;4.47;2.88;;;1.70;99.90;;;;;;5134221;27;20047;-64
2024/01/28 04:40:06;;;;;;;2.70;2.15;;;1.30;99.90;;;;;;5134251;27;20031;-63
2024/01/28 04:42:33;;;;;;;2.65;2.45;;;1.30;99.90;;;;;;5133882;27;20083;-64
2024/01/28 04:44:59;;;;;;;2.40;2.20;;;1.30;99.90;;;;;;5133819;27;20080;-64
2024/01/28 04:47:24;;;;;;;4.97;2.78;;;1.30;99.90;;;;;;5134186;27;20031;-64
2024/01/28 04:49:50;;;;;;;3.33;2.58;;;1.30;99.90;;;;;;5134195;27;20076;-63
2024/01/28 04:52:16;;;;;;;2.75;2.30;;;1.20;99.90;;;;;;5133980;28;20077;-63
2024/01/28 04:54:41;;;;;;;3.05;2.45;;;1.20;99.90;;;;;;5134033;28;20103;-61
2024/01/28 04:57:08;;;;;;;3.83;2.53;;;1.20;99.90;;;;;;5133774;28;20039;-61
2024/01/28 04:59:34;;;;;;;2.38;2.08;;;1.20;99.90;;;;;;5134011;28;20398;-62
2024/01/28 05:02:00;;;;;;;2.47;1.95;;;1.20;99.90;;;;;;5134084;28;20027;-61
2024/01/28 05:04:25;;;;;;;3.88;2.17;;;1.20;99.90;;;;;;5098428;27;20118;-61
2024/01/28 05:06:51;;;;;;;2.97;2.05;;;1.20;99.90;;;;;;5136730;27;20406;-61
2024/01/28 05:09:17;;;;;;;2.67;1.98;;;1.20;99.90;;;;;;5138327;27;20091;-61
2024/01/28 05:11:50;;;;;;;3.17;2.22;;;1.20;99.90;;;;;;5136702;27;20395;-61
2024/01/28 05:14:16;;;;;;;3.78;2.65;;;1.10;99.90;;;;;;5119807;27;20086;-61
2024/01/28 05:16:47;;;;;;;3.75;1.90;;;1.20;99.90;;;;;;5138101;27;20071;-61
2024/01/28 05:19:12;;;;;;;3.42;2.65;;;1.10;99.90;;;;;;5138053;27;20064;-61
2024/01/28 05:21:38;;;;;;;3.03;2.20;;;1.10;99.90;;;;;;5119711;27;20072;-61
2024/01/28 05:24:05;;;;;;;2.60;2.05;;;1.10;99.90;;;;;;5137959;27;20039;-61
2024/01/28 05:26:32;;;;;;;3.05;2.25;;;1.10;99.90;;;;;;5137587;27;20087;-61
2024/01/28 05:29:04;;;;;;;2.78;2.00;;;1.10;99.90;;;;;;5137880;27;20459;-61
2024/01/28 05:31:30;;;;;;;3.50;2.55;;;1.10;99.90;;;;;;5119132;27;20450;-61
2024/01/28 05:33:55;;;;;;;2.53;1.90;;;1.30;99.90;;;;;;5137828;27;20039;-62
2024/01/28 05:36:22;;;;;;;4.93;2.13;;;1.10;99.90;;;;;;5137525;27;20042;-61
2024/01/28 05:38:47;;;;;;;2.38;1.92;;;1.10;99.90;;;;;;5137680;27;20046;-62
2024/01/28 05:41:14;;;;;;;2.45;1.75;;;1.10;99.90;;;;;;5137694;27;20031;-61
2024/01/28 05:43:39;;;;;;;3.40;2.47;;;1.10;99.90;;;;;;5119010;27;20042;-65
2024/01/28 05:46:05;;;;;;;3.38;2.13;;;1.00;99.90;;;;;;5118865;27;20483;-65
2024/01/28 05:48:32;;;;;;;2.65;1.98;;;1.00;99.90;;;;;;5137463;27;20035;-64
2024/01/28 05:50:58;;;;;;;2.85;2.35;;;1.00;99.90;;;;;;5137381;27;20122;-65
2024/01/28 05:53:24;;;;;;;2.45;2.03;;;1.00;99.90;;;;;;5137329;27;20505;-65
2024/01/28 05:55:53;;;;;;;3.55;2.15;;;0.90;99.90;;;;;;5137308;27;20049;-64
2024/01/28 05:58:21;;;;;;;4.85;2.22;;;1.00;99.90;;;;;;5136881;27;20046;-64
2024/01/28 06:00:46;;;;;;;2.83;2.13;;;0.90;99.90;;;;;;5137196;27;20384;-64
2024/01/28 06:03:13;;;;;;;3.85;2.38;;;0.90;99.90;;;;;;5137172;27;20042;-64
2024/01/28 06:05:38;;;;;;;3.28;2.22;;;0.80;99.90;;;;;;5137224;27;20442;-64
2024/01/28 06:08:08;;;;;;;1.98;1.58;;;0.80;99.90;;;;;;5137164;27;20165;-64
2024/01/28 06:10:34;;;;;;;2.63;2.10;;;0.70;99.90;;;;;;5135406;27;20051;-64
2024/01/28 06:13:13;;;;;;;2.47;2.05;;;0.60;99.90;;;;;;5136996;27;20051;-65
2024/01/28 06:15:39;;;;;;;2.95;2.03;;;0.60;99.90;;;;;;5136979;27;20403;-65
2024/01/28 06:18:05;;;;;;;3.00;2.13;;;0.50;99.90;;;;;;5136259;27;20038;-65
2024/01/28 06:20:35;;;;;;;2.10;1.90;;;0.50;99.90;;;;;;5136790;27;20031;-65
2024/01/28 06:23:01;;;;;;;4.10;2.60;;;0.50;99.90;;;;;;5136572;27;20046;-65
2024/01/28 06:25:26;;;;;;;3.40;2.22;;;0.40;99.90;;;;;;5136816;27;20039;-64
2024/01/28 06:27:52;;;;;;;3.38;2.42;;;0.30;99.90;;;;;;5136401;27;20045;-65
2024/01/28 06:30:18;;;;;;;2.95;2.35;;;0.30;99.90;;;;;;5136389;27;20035;-63
2024/01/28 06:32:43;;;;;;;2.30;2.10;;;0.30;99.90;;;;;;5136602;27;20145;-63
2024/01/28 06:35:09;;;;;;;2.92;2.25;;;0.20;99.90;;;;;;5136636;27;20091;-66
2024/01/28 06:37:36;;;;;;;3.85;2.17;;;0.20;99.90;;;;;;5136449;27;20035;-64
2024/01/28 06:40:02;;;;;;;3.28;2.45;;;0.20;99.90;;;;;;5136542;27;20057;-64
2024/01/28 06:42:31;;;;;;;2.35;2.13;;;0.10;99.90;;;;;;5136422;27;20035;-64
2024/01/28 06:44:58;;;;;;;3.55;2.30;;;0.10;99.90;;;;;;5136102;27;20045;-64
2024/01/28 06:47:24;;;;;;;2.08;1.88;;;0.10;99.90;;;;;;5136374;27;20070;-64
2024/01/28 06:49:50;;;;;;;3.50;2.42;;;0.10;99.90;;;;;;5135997;27;20043;-64
2024/01/28 06:52:15;;;;;;;2.72;2.40;;;0.00;99.90;;;;;;5135960;27;20157;-63
2024/01/28 06:54:41;;;;;;;3.15;2.38;;;0.00;99.90;;;;;;5136424;27;20047;-60
2024/01/28 06:57:07;;;;;;;3.50;2.33;;;0.00;99.90;;;;;;5136156;27;20092;-60
2024/01/28 06:59:32;;;;;;;7.20;2.30;;;0.00;99.90;;;;;;5117368;27;20043;-60
2024/01/28 07:01:58;;;;;;;2.85;2.25;;;0.00;99.90;;;;;;5135841;27;20039;-60
2024/01/28 07:04:23;;;;;;;3.28;2.50;;;0.00;99.90;;;;;;5117393;27;20539;-60
2024/01/28 07:06:49;;;;;;;2.28;1.95;;;0.00;99.90;;;;;;5136023;27;20080;-60
2024/01/28 07:09:17;;;;;;;2.70;2.47;;;-0.10;99.90;;;;;;5135964;27;20064;-61
2024/01/28 07:11:50;;;;;;;3.17;2.42;;;-0.10;99.90;;;;;;5134247;27;20061;-60
2024/01/28 07:14:17;;;;;;;2.65;2.08;;;-0.10;99.90;;;;;;5135750;27;20042;-60
2024/01/28 07:16:42;;;;;;;4.60;2.20;;;-0.10;99.90;;;;;;5135475;27;20114;-60
2024/01/28 07:19:08;;;;;;;3.00;2.40;;;-0.10;99.90;;;;;;5135639;27;20130;-60
2024/01/28 07:21:34;;;;;;;3.15;2.58;;;-0.10;99.90;;;;;;5135590;27;20531;-61
2024/01/28 07:23:59;;;;;;;2.63;2.20;;;-0.10;99.90;;;;;;5117114;27;20047;-70
2024/01/28 07:26:25;;;;;;;2.85;2.45;;;-0.10;99.90;;;;;;5135542;27;20031;-69
2024/01/28 07:28:51;;;;;;;3.55;2.35;;;-0.10;99.90;;;;;;5134493;27;20126;-69
2024/01/28 07:31:17;;;;;;;2.97;2.13;;;-0.10;99.90;;;;;;5116876;27;20058;-69
2024/01/28 07:33:43;;;;;;;2.63;2.00;;;-0.10;99.90;;;;;;5116833;27;20505;-69
2024/01/28 07:36:09;;;;;;;3.53;2.55;;;-0.10;99.90;;;;;;5116678;27;20436;-69
2024/01/28 07:38:35;;;;;;;4.05;2.30;;;-0.10;99.90;;;;;;5135227;27;20540;-70
2024/01/28 07:41:01;;;;;;;2.72;1.80;;;-0.10;99.90;;;;;;5135051;27;20039;-69
2024/01/28 07:43:26;;;;;;;3.15;2.45;;;-0.10;99.90;;;;;;5116652;27;20046;-69
2024/01/28 07:45:52;;;;;;;3.10;2.40;;;-0.10;99.90;;;;;;5135243;27;20404;-69
2024/01/28 07:48:17;;;;;;;3.40;2.20;;;0.00;99.90;;;;;;5135271;27;20068;-68
2024/01/28 07:50:43;;;;;;;4.82;2.70;;;0.10;99.90;;;;;;5135140;27;20046;-69
2024/01/28 07:53:09;;;;;;;3.20;2.33;;;0.00;99.90;;;;;;5134704;27;20082;-69
2024/01/28 07:55:35;;;;;;;3.42;2.50;;;0.00;99.90;;;;;;5135088;27;20031;-69
2024/01/28 07:58:00;;;;;;;3.00;2.45;;;0.10;99.90;;;;;;5116225;27;20459;-69
2024/01/28 08:00:27;;;;;;;2.78;2.20;;;0.10;99.90;;;;;;5134881;27;20046;-68
2024/01/28 08:02:53;;;;;;;2.85;2.05;;;0.20;99.90;;;;;;5135032;27;20039;-70
2024/01/28 08:05:19;;;;;;;3.28;2.70;;;0.20;99.90;;;;;;5134641;27;20146;-65
2024/01/28 08:07:45;;;;;;;3.08;1.98;;;0.30;99.90;;;;;;5134801;27;20059;-64
2024/01/28 08:10:10;;;;;;;2.95;2.17;;;0.30;99.90;;;;;;5133355;27;20384;-65
2024/01/28 08:12:49;;;;;;;1.98;1.88;;;0.40;99.90;;;;;;5134622;27;20122;-63
2024/01/28 08:15:15;;;;;;;3.58;2.38;;;0.50;99.90;;;;;;5134465;27;20050;-64
2024/01/28 08:17:41;;;;;;;4.20;2.00;;;0.50;99.90;;;;;;5134541;27;20110;-64
2024/01/28 08:20:07;;;;;;;3.92;2.00;;;1.20;99.90;;;;;;5134467;27;20092;-64
2024/01/28 08:22:33;;;;;;;2.58;2.38;;;0.60;99.90;;;;;;5115885;27;20118;-63
2024/01/28 08:24:59;;;;;;;2.80;2.10;;;0.70;99.90;;;;;;5134457;27;20118;-63
2024/01/28 08:27:24;;;;;;;2.47;2.08;;;0.70;99.90;;;;;;5134447;27;20439;-62
2024/01/28 08:29:50;;;;;;;2.78;2.10;;;0.80;99.90;;;;;;5134379;27;20108;-63
2024/01/28 08:32:16;;;;;;;3.50;2.00;;;0.90;99.90;;;;;;5134370;27;20505;-61
2024/01/28 08:34:41;;;;;;;4.25;2.42;;;1.00;99.90;;;;;;5134192;27;20042;-59
2024/01/28 08:37:07;;;;;;;2.75;1.80;;;1.10;99.90;;;;;;5134380;27;20042;-59
2024/01/28 08:39:33;;;;;;;2.35;2.03;;;1.10;99.90;;;;;;5133684;27;20042;-59
2024/01/28 08:41:59;;;;;;;2.10;1.90;;;1.20;99.90;;;;;;5133991;27;20118;-60
2024/01/28 08:44:25;;;;;;;2.22;1.73;;;1.30;99.90;;;;;;5134357;27;20061;-61
2024/01/28 08:46:51;;;;;;;2.35;1.98;;;1.40;99.90;;;;;;5134173;27;20035;-61
2024/01/28 08:49:17;;;;;;;3.08;2.20;;;1.50;99.90;;;;;;5133837;27;20035;-61
2024/01/28 08:51:42;;;;;;;2.53;1.88;;;1.60;99.90;;;;;;5133771;27;20031;-61
2024/01/28 08:54:08;;;;;;;2.15;1.70;;;1.60;99.90;;;;;;5115405;28;20130;-61
2024/01/28 08:56:34;;;;;;;2.55;1.60;;;1.80;99.90;;;;;;5115639;28;20799;-60
2024/01/28 08:58:59;;;;;;;2.03;1.80;;;1.90;99.90;;;;;;5133750;28;20046;-61
2024/01/28 09:01:25;;;;;;;2.55;1.90;;;2.00;99.90;;;;;;5134424;28;20493;-61
2024/01/28 09:03:51;;;;;;;2.20;1.55;;;2.00;99.90;;;;;;5134088;28;20482;-61
2024/01/28 09:06:16;;;;;;;2.17;1.50;;;2.00;99.90;;;;;;5133951;28;20037;-62
2024/01/28 09:08:42;;;;;;;1.95;1.42;;;2.10;99.90;;;;;;5134047;28;20031;-62
2024/01/28 09:11:15;;;;;;;1.60;1.48;;;3.00;99.90;;;;;;5132423;28;20063;-61
2024/01/28 09:13:41;;;;;;;2.17;1.77;;;2.20;99.90;;;;;;5133940;28;20038;-61
2024/01/28 09:16:07;;;;;;;2.85;1.65;;;2.30;99.90;;;;;;5115471;28;20047;-72
2024/01/28 09:18:32;;;;;;;2.35;1.85;;;2.50;99.90;;;;;;5133621;28;20047;-76
2024/01/28 09:20:59;;;;;;;2.13;1.67;;;2.30;99.90;;;;;;5133959;28;20118;-73
2024/01/28 09:23:25;;;;;;;1.88;1.45;;;2.30;99.90;;;;;;5115133;28;20085;-74
2024/01/28 09:25:50;;;;;;;2.92;1.67;;;2.30;99.90;;;;;;5133775;28;20062;-73
2024/01/28 09:28:16;;;;;;;2.55;1.60;;;2.40;99.90;;;;;;5133878;28;20043;-70
2024/01/28 09:30:42;;;;;;;1.73;1.45;;;2.50;99.90;;;;;;5133725;28;20039;-73
2024/01/28 09:33:10;;;;;;;3.53;1.52;;;2.60;99.90;;;;;;5133460;28;20039;-74
2024/01/28 09:35:39;;;;;;;2.13;1.60;;;2.70;99.90;;;;;;5115012;28;20046;-72
2024/01/28 09:38:06;;;;;;;1.90;1.50;;;2.80;99.90;;;;;;5133478;28;20045;-71
2024/01/28 09:40:32;;;;;;;2.90;1.58;;;2.90;99.90;;;;;;5133496;28;20433;-72
2024/01/28 09:42:59;;;;;;;2.00;1.65;;;3.00;99.90;;;;;;5133687;28;20039;-72
2024/01/28 09:45:26;;;;;;;1.55;1.42;;;3.10;99.90;;;;;;5115194;28;20039;-72
2024/01/28 09:47:53;;;;;;;1.88;1.15;;;3.20;99.90;;;;;;5133581;28;20087;-71
2024/01/28 09:50:20;;;;;;;1.63;1.30;;;3.30;99.90;;;;;;5133529;28;20524;-70
2024/01/28 09:52:45;;;;;;;1.60;1.20;;;3.40;99.90;;;;;;5136132;27;20118;-72
2024/01/28 09:55:11;;;;;;;1.75;1.40;;;3.50;99.90;;;;;;5137214;27;20135;-65
2024/01/28 09:57:38;;;;;;;2.22;1.58;;;3.50;99.90;;;;;;5118529;27;20530;-65
2024/01/28 10:00:07;;;;;;;1.40;1.17;;;3.60;99.90;;;;;;5137187;27;20118;-67
2024/01/28 10:02:35;;;;;;;2.33;1.20;;;3.70;99.90;;;;;;5137222;27;20035;-66
2024/01/28 10:05:01;;;;;;;2.15;1.52;;;3.90;99.90;;;;;;5137132;27;20050;-66
2024/01/28 10:07:27;;;;;;;1.88;1.15;;;3.90;99.90;;;;;;5137085;27;20042;-66
2024/01/28 10:09:53;;;;;;;1.42;1.20;;;4.10;99.90;;;;;;5136888;27;20111;-66
2024/01/28 10:12:32;;;;;;;2.75;1.20;;;4.50;99.90;;;;;;5136963;27;20100;-66
2024/01/28 10:14:58;;;;;;;1.25;1.02;;;4.30;99.90;;;;;;5137095;27;20393;-67
2024/01/28 10:17:23;;;;;;;1.67;1.23;;;4.40;99.90;;;;;;5136380;27;20119;-67
2024/01/28 10:19:49;;;;;;;1.58;1.30;;;4.50;99.40;;;;;;5136598;27;20081;-67
2024/01/28 10:22:15;;;;;;;1.55;1.45;;;4.60;99.80;;;;;;5136708;27;20030;-68
2024/01/28 10:24:42;;;;;;;1.75;1.10;;;4.70;99.90;;;;;;5136868;27;20037;-72
2024/01/28 10:27:08;;;;;;;1.83;1.10;;;4.70;99.90;;;;;;5118106;27;20095;-72
2024/01/28 10:29:34;;;;;;;1.33;1.13;;;4.70;99.90;;;;;;5118180;27;20058;-71
2024/01/28 10:32:01;;;;;;;1.23;1.13;;;4.90;99.90;;;;;;5136589;27;20034;-72
2024/01/28 10:34:26;;;;;;;1.73;1.10;;;4.90;94.60;;;;;;5136618;27;20486;-72
2024/01/28 10:36:55;;;;;;;1.60;1.05;;;4.90;99.90;;;;;;5117972;27;20179;-72
2024/01/28 10:39:22;;;;;;;1.58;1.48;;;5.00;99.90;;;;;;5117796;27;20054;-71
2024/01/28 10:41:56;;;;;;;1.23;1.10;;;5.00;92.60;;;;;;5136432;27;20042;-71
2024/01/28 10:44:22;;;;;;;1.52;1.42;;;5.00;99.90;;;;;;5136274;27;20039;-73
2024/01/28 10:46:56;;;;;;;1.55;1.20;;;5.10;99.90;;;;;;5119349;27;20080;-72
2024/01/28 10:49:31;;;;;;;1.13;1.02;;;5.10;97.50;;;;;;5136625;27;20487;-71
2024/01/28 10:51:57;;;;;;;1.23;1.13;;;5.30;95.80;;;;;;5137154;27;20046;-72
2024/01/28 10:54:24;;;;;;;1.02;0.90;;;5.50;24.80;;;;;;5137343;27;20043;-73
2024/01/28 10:56:52;;;;;;;1.80;1.27;;;5.60;1.00;;;;;;5118526;27;20039;-73
2024/01/28 10:59:19;;;;;;;1.05;0.98;;;5.70;99.90;;;;;;5136664;27;20043;-70
2024/01/28 11:01:45;;;;;;;1.48;1.15;;;5.80;99.90;;;;;;5118123;27;20046;-72
2024/01/28 11:04:10;;;;;;;1.75;1.35;;;5.80;99.90;;;;;;5136258;27;20051;-63
2024/01/28 11:06:36;;;;;;;1.10;1.00;;;5.90;1.00;;;;;;5136002;27;20390;-64
2024/01/28 11:09:03;;;;;;;1.15;1.00;;;6.00;1.00;;;;;;5135984;27;20070;-63
2024/01/28 11:11:35;;;;;;;1.60;1.10;;;6.10;1.00;;;;;;5096497;28;20051;-63
2024/01/28 11:14:07;;;;;;;1.08;0.85;;;6.50;99.90;;;;;;5113704;28;20048;-64
2024/01/28 11:16:32;;;;;;;1.25;1.10;;;6.20;1.00;;;;;;5115190;28;20097;-63
2024/01/28 11:19:06;;;;;;;1.40;1.10;;;6.60;1.00;;;;;;5114804;28;20040;-64
2024/01/28 11:21:33;;;;;;;1.15;1.05;;;6.30;99.90;;;;;;5114992;28;20114;-64
2024/01/28 11:24:04;;;;;;;1.45;1.10;;;6.40;99.90;;;;;;5115023;28;20031;-64
2024/01/28 11:26:35;;;;;;;0.80;0.80;;;6.40;79.80;;;;;;5114917;28;20153;-63
2024/01/28 11:29:04;;;;;;;1.00;1.00;;;6.50;99.90;;;;;;5115045;28;20043;-63
2024/01/28 11:31:32;;;;;;;1.20;1.10;;;6.50;99.90;;;;;;5114967;28;20132;-63
2024/01/28 11:34:20;;;;;;;1.45;1.10;;;6.60;1.00;;;;;;5115008;28;20059;-63
2024/01/28 11:36:53;;;;;;;1.10;1.00;;;6.70;44.80;;;;;;5114867;28;20043;-65
2024/01/28 11:39:35;;;;;;;0.80;0.80;;;6.80;1.00;;;;;;5114471;28;20403;-67
2024/01/28 11:42:01;;;;;;;1.10;1.00;;;7.00;1.00;;;;;;5114780;28;20376;-66
2024/01/28 11:44:28;;;;;;;0.70;0.70;;;7.30;1.00;;;;;;5113148;28;20048;-66
2024/01/28 11:46:54;;;;;;;1.30;1.10;;;7.60;99.90;;;;;;5114708;28;20149;-68
2024/01/28 11:49:20;;;;;;;1.00;0.88;;;7.90;99.90;;;;;;5113214;28;20055;-66
2024/01/28 11:51:46;;;;;;;1.80;1.25;;;8.10;99.90;;;;;;5113060;28;20135;-66
2024/01/28 11:54:11;;;;;;;0.80;0.80;;;8.20;46.10;;;;;;5114499;28;20476;-66
2024/01/28 11:56:37;;;;;;;0.73;0.73;;;8.30;43.10;;;;;;5113068;28;20059;-67
2024/01/28 11:59:03;;;;;;;1.05;0.98;;;8.40;99.90;;;;;;5114298;28;20040;-67
2024/01/28 12:01:37;;;;;;;1.00;0.90;;;8.60;97.70;;;;;;5113913;28;20043;-67
2024/01/28 12:04:23;;;;;;;1.95;1.05;;;8.70;32.80;;;;;;5114616;28;20066;-67
2024/01/28 12:06:49;;;;;;;0.70;0.70;;;8.90;1.00;;;;;;5114058;28;20039;-65
2024/01/28 12:09:15;;;;;;;0.90;0.90;;;9.10;99.90;;;;;;5114291;28;20046;-65
2024/01/28 12:11:40;;;;;;;0.80;0.80;;;9.40;99.90;;;;;;5126015;27;20413;-69
2024/01/28 12:14:14;;;;;;;1.27;0.98;;;9.60;99.90;;;;;;5134287;27;20079;-65
2024/01/28 12:16:39;;;;;;;1.17;0.80;;;9.80;99.90;;;;;;5134656;27;20500;-61
2024/01/28 12:19:10;;;;;;;0.50;0.50;;;10.10;99.90;;;;;;5134548;27;20118;-62
2024/01/28 12:21:35;;;;;;;1.25;0.82;;;10.30;99.90;;;;;;5134286;27;20042;-62
2024/01/28 12:24:04;;;;;;;1.67;1.10;;;10.50;99.90;;;;;;5134238;27;20035;-62
2024/01/28 12:26:32;;;;;;;0.98;0.80;;;10.10;99.90;;;;;;5134530;27;20375;-62
2024/01/28 12:28:59;;;;;;;0.70;0.70;;;10.10;99.90;;;;;;5134240;27;20047;-62
2024/01/28 12:31:25;;;;;;;1.20;1.10;;;10.10;99.90;;;;;;5134438;27;20039;-62
2024/01/28 12:33:50;;;;;;;0.88;0.85;;;9.80;99.90;;;;;;5134059;27;20087;-63
2024/01/28 12:36:17;;;;;;;1.70;0.90;;;9.50;99.90;;;;;;5133945;27;20038;-63
2024/01/28 12:38:43;;;;;;;1.27;1.00;;;9.70;99.90;;;;;;5134242;27;20053;-63
2024/01/28 12:41:10;;;;;;;1.02;0.82;;;9.70;99.90;;;;;;5134289;27;20551;-63
2024/01/28 12:43:40;;;;;;;0.75;0.65;;;9.50;99.90;;;;;;5115625;28;20039;-63
2024/01/28 12:46:07;;;;;;;1.00;0.87;;;9.40;99.90;;;;;;5134246;27;20027;-67
2024/01/28 12:48:33;;;;;;;0.98;0.90;;;9.50;99.90;;;;;;5134118;27;20269;-65
2024/01/28 12:50:58;;;;;;;0.82;0.82;;;9.10;99.90;;;;;;5115298;27;20486;-65
2024/01/28 12:53:24;;;;;;;1.17;0.90;;;9.00;99.90;;;;;;5134152;27;20035;-65
2024/01/28 12:56:19;;;;;;;1.90;1.23;;;8.90;99.90;;;;;;4860280;27;8246726;-65